sensor_id;sensor_type;location;lat;lon;timestamp;P1;durP1;ratioP1;P2;durP2;ratioP2
34924;SDS011;21130;51.728;8.748;2022-07-06T00:01:45;2.38;;;1.35;;
34924;SDS011;21130;51.728;8.748;2022-07-06T00:04:10;4.07;;;1.52;;
34924;SDS011;21130;51.728;8.748;2022-07-06T00:06:36;2.22;;;1.30;;
34924;SDS011;21130;51.728;8.748;2022-07-06T00:09:04;1.50;;;1.15;;
34924;SDS011;21130;51.728;8.748;2022-07-06T00:11:30;2.63;;;0.85;;
34924;SDS011;21130;51.728;8.748;2022-07-06T00:13:56;1.15;;;1.02;;
34924;SDS011;21130;51.728;8.748;2022-07-06T00:16:22;1.77;;;1.30;;
34924;SDS011;21130;51.728;8.748;2022-07-06T00:18:47;3.30;;;1.40;;
34924;SDS011;21130;51.728;8.748;2022-07-06T00:21:13;1.92;;;1.20;;
34924;SDS011;21130;51.728;8.748;2022-07-06T00:23:38;2.20;;;1.52;;
34924;SDS011;21130;51.728;8.748;2022-07-06T00:26:03;5.53;;;1.52;;
34924;SDS011;21130;51.728;8.748;2022-07-06T00:28:29;2.75;;;1.25;;
34924;SDS011;21130;51.728;8.748;2022-07-06T00:30:54;2.90;;;1.10;;
34924;SDS011;21130;51.728;8.748;2022-07-06T00:33:20;0.90;;;0.90;;
34924;SDS011;21130;51.728;8.748;2022-07-06T00:35:46;2.00;;;1.00;;
34924;SDS011;21130;51.728;8.748;2022-07-06T00:38:11;1.73;;;1.27;;
34924;SDS011;21130;51.728;8.748;2022-07-06T00:40:37;2.25;;;1.10;;
34924;SDS011;21130;51.728;8.748;2022-07-06T00:43:02;3.83;;;1.60;;
34924;SDS011;21130;51.728;8.748;2022-07-06T00:45:28;2.85;;;1.50;;
34924;SDS011;21130;51.728;8.748;2022-07-06T00:47:53;4.15;;;1.95;;
34924;SDS011;21130;51.728;8.748;2022-07-06T00:50:19;4.88;;;1.67;;
34924;SDS011;21130;51.728;8.748;2022-07-06T00:55:15;3.70;;;1.90;;
34924;SDS011;21130;51.728;8.748;2022-07-06T00:57:43;3.90;;;1.83;;
34924;SDS011;21130;51.728;8.748;2022-07-06T01:00:10;4.28;;;1.50;;
34924;SDS011;21130;51.728;8.748;2022-07-06T01:02:37;2.88;;;1.48;;
34924;SDS011;21130;51.728;8.748;2022-07-06T01:05:06;5.22;;;1.70;;
34924;SDS011;21130;51.728;8.748;2022-07-06T01:07:32;1.85;;;1.40;;
34924;SDS011;21130;51.728;8.748;2022-07-06T01:09:59;2.15;;;1.40;;
34924;SDS011;21130;51.728;8.748;2022-07-06T01:12:24;1.98;;;1.35;;
34924;SDS011;21130;51.728;8.748;2022-07-06T01:14:50;3.65;;;1.30;;
34924;SDS011;21130;51.728;8.748;2022-07-06T01:17:16;3.83;;;1.48;;
34924;SDS011;21130;51.728;8.748;2022-07-06T01:19:42;2.22;;;1.33;;
34924;SDS011;21130;51.728;8.748;2022-07-06T01:22:08;1.58;;;1.05;;
34924;SDS011;21130;51.728;8.748;2022-07-06T01:24:36;3.47;;;1.67;;
34924;SDS011;21130;51.728;8.748;2022-07-06T01:27:06;5.63;;;1.67;;
34924;SDS011;21130;51.728;8.748;2022-07-06T01:29:32;6.38;;;1.70;;
34924;SDS011;21130;51.728;8.748;2022-07-06T01:31:59;3.20;;;1.65;;
34924;SDS011;21130;51.728;8.748;2022-07-06T01:34:25;4.75;;;1.58;;
34924;SDS011;21130;51.728;8.748;2022-07-06T01:36:51;3.58;;;1.90;;
34924;SDS011;21130;51.728;8.748;2022-07-06T01:39:17;1.67;;;1.58;;
34924;SDS011;21130;51.728;8.748;2022-07-06T01:41:42;5.43;;;1.83;;
34924;SDS011;21130;51.728;8.748;2022-07-06T01:44:07;5.43;;;1.85;;
34924;SDS011;21130;51.728;8.748;2022-07-06T01:46:33;3.78;;;2.10;;
34924;SDS011;21130;51.728;8.748;2022-07-06T01:48:58;3.40;;;1.80;;
34924;SDS011;21130;51.728;8.748;2022-07-06T01:51:24;3.78;;;1.80;;
34924;SDS011;21130;51.728;8.748;2022-07-06T01:53:50;3.90;;;1.65;;
34924;SDS011;21130;51.728;8.748;2022-07-06T01:56:16;4.47;;;2.08;;
34924;SDS011;21130;51.728;8.748;2022-07-06T01:58:44;4.95;;;2.42;;
34924;SDS011;21130;51.728;8.748;2022-07-06T02:01:10;3.80;;;2.00;;
34924;SDS011;21130;51.728;8.748;2022-07-06T02:03:37;3.58;;;1.90;;
34924;SDS011;21130;51.728;8.748;2022-07-06T02:06:03;3.00;;;1.83;;
34924;SDS011;21130;51.728;8.748;2022-07-06T02:08:30;2.78;;;2.03;;
34924;SDS011;21130;51.728;8.748;2022-07-06T02:10:57;2.90;;;1.98;;
34924;SDS011;21130;51.728;8.748;2022-07-06T02:13:22;4.22;;;1.90;;
34924;SDS011;21130;51.728;8.748;2022-07-06T02:15:47;4.13;;;1.98;;
34924;SDS011;21130;51.728;8.748;2022-07-06T02:18:13;4.43;;;2.13;;
34924;SDS011;21130;51.728;8.748;2022-07-06T02:20:38;3.05;;;1.95;;
34924;SDS011;21130;51.728;8.748;2022-07-06T02:23:03;3.75;;;2.40;;
34924;SDS011;21130;51.728;8.748;2022-07-06T02:25:29;4.63;;;2.67;;
34924;SDS011;21130;51.728;8.748;2022-07-06T02:27:54;4.43;;;2.75;;
34924;SDS011;21130;51.728;8.748;2022-07-06T02:30:19;5.65;;;2.70;;
34924;SDS011;21130;51.728;8.748;2022-07-06T02:32:45;4.78;;;2.90;;
34924;SDS011;21130;51.728;8.748;2022-07-06T02:35:11;5.00;;;2.60;;
34924;SDS011;21130;51.728;8.748;2022-07-06T02:37:36;3.20;;;2.65;;
34924;SDS011;21130;51.728;8.748;2022-07-06T02:40:01;3.92;;;2.88;;
34924;SDS011;21130;51.728;8.748;2022-07-06T02:42:27;4.95;;;3.00;;
34924;SDS011;21130;51.728;8.748;2022-07-06T02:44:53;3.50;;;2.80;;
34924;SDS011;21130;51.728;8.748;2022-07-06T02:47:19;3.92;;;2.60;;
34924;SDS011;21130;51.728;8.748;2022-07-06T02:49:44;5.45;;;2.85;;
34924;SDS011;21130;51.728;8.748;2022-07-06T02:52:09;3.10;;;2.60;;
34924;SDS011;21130;51.728;8.748;2022-07-06T02:54:35;3.88;;;2.63;;
34924;SDS011;21130;51.728;8.748;2022-07-06T02:57:00;4.65;;;2.75;;
34924;SDS011;21130;51.728;8.748;2022-07-06T02:59:25;2.83;;;2.50;;
34924;SDS011;21130;51.728;8.748;2022-07-06T03:01:51;7.25;;;2.58;;
34924;SDS011;21130;51.728;8.748;2022-07-06T03:04:16;3.95;;;2.67;;
34924;SDS011;21130;51.728;8.748;2022-07-06T03:06:41;5.72;;;2.70;;
34924;SDS011;21130;51.728;8.748;2022-07-06T03:09:06;5.65;;;2.90;;
34924;SDS011;21130;51.728;8.748;2022-07-06T03:11:32;4.78;;;2.38;;
34924;SDS011;21130;51.728;8.748;2022-07-06T03:14:01;4.75;;;2.30;;
34924;SDS011;21130;51.728;8.748;2022-07-06T03:16:29;5.88;;;2.53;;
34924;SDS011;21130;51.728;8.748;2022-07-06T03:18:55;4.20;;;2.40;;
34924;SDS011;21130;51.728;8.748;2022-07-06T03:21:21;5.97;;;2.85;;
34924;SDS011;21130;51.728;8.748;2022-07-06T03:23:47;3.45;;;2.83;;
34924;SDS011;21130;51.728;8.748;2022-07-06T03:26:12;5.07;;;2.80;;
34924;SDS011;21130;51.728;8.748;2022-07-06T03:28:37;4.28;;;3.00;;
34924;SDS011;21130;51.728;8.748;2022-07-06T03:31:02;3.75;;;2.67;;
34924;SDS011;21130;51.728;8.748;2022-07-06T03:33:28;4.07;;;2.95;;
34924;SDS011;21130;51.728;8.748;2022-07-06T03:35:54;4.50;;;2.53;;
34924;SDS011;21130;51.728;8.748;2022-07-06T03:38:19;4.50;;;2.60;;
34924;SDS011;21130;51.728;8.748;2022-07-06T03:40:44;4.55;;;2.92;;
34924;SDS011;21130;51.728;8.748;2022-07-06T03:43:10;4.72;;;2.40;;
34924;SDS011;21130;51.728;8.748;2022-07-06T03:45:35;3.30;;;2.60;;
34924;SDS011;21130;51.728;8.748;2022-07-06T03:48:00;3.80;;;2.65;;
34924;SDS011;21130;51.728;8.748;2022-07-06T03:50:26;4.60;;;2.70;;
34924;SDS011;21130;51.728;8.748;2022-07-06T03:52:51;3.20;;;2.67;;
34924;SDS011;21130;51.728;8.748;2022-07-06T03:55:16;4.22;;;2.50;;
34924;SDS011;21130;51.728;8.748;2022-07-06T03:57:42;4.70;;;3.10;;
34924;SDS011;21130;51.728;8.748;2022-07-06T04:00:08;4.50;;;2.88;;
34924;SDS011;21130;51.728;8.748;2022-07-06T04:02:34;3.42;;;2.67;;
34924;SDS011;21130;51.728;8.748;2022-07-06T04:04:59;3.38;;;2.40;;
34924;SDS011;21130;51.728;8.748;2022-07-06T04:07:25;3.10;;;2.28;;
34924;SDS011;21130;51.728;8.748;2022-07-06T04:09:50;4.82;;;2.70;;
34924;SDS011;21130;51.728;8.748;2022-07-06T04:12:16;6.00;;;2.97;;
34924;SDS011;21130;51.728;8.748;2022-07-06T04:14:41;5.28;;;2.50;;
34924;SDS011;21130;51.728;8.748;2022-07-06T04:17:07;3.88;;;2.42;;
34924;SDS011;21130;51.728;8.748;2022-07-06T04:19:50;4.15;;;2.40;;
34924;SDS011;21130;51.728;8.748;2022-07-06T04:22:16;3.53;;;2.50;;
34924;SDS011;21130;51.728;8.748;2022-07-06T04:24:41;3.72;;;2.65;;
34924;SDS011;21130;51.728;8.748;2022-07-06T04:27:07;4.78;;;2.45;;
34924;SDS011;21130;51.728;8.748;2022-07-06T04:29:33;3.55;;;2.15;;
34924;SDS011;21130;51.728;8.748;2022-07-06T04:31:58;2.88;;;2.33;;
34924;SDS011;21130;51.728;8.748;2022-07-06T04:34:24;3.92;;;2.83;;
34924;SDS011;21130;51.728;8.748;2022-07-06T04:36:49;6.97;;;3.10;;
34924;SDS011;21130;51.728;8.748;2022-07-06T04:39:14;4.35;;;2.40;;
34924;SDS011;21130;51.728;8.748;2022-07-06T04:41:40;3.83;;;2.05;;
34924;SDS011;21130;51.728;8.748;2022-07-06T04:44:05;4.40;;;2.25;;
34924;SDS011;21130;51.728;8.748;2022-07-06T04:46:30;4.38;;;2.30;;
34924;SDS011;21130;51.728;8.748;2022-07-06T04:48:55;3.63;;;2.47;;
34924;SDS011;21130;51.728;8.748;2022-07-06T04:51:21;4.20;;;2.30;;
34924;SDS011;21130;51.728;8.748;2022-07-06T04:53:46;3.47;;;2.50;;
34924;SDS011;21130;51.728;8.748;2022-07-06T04:56:11;5.13;;;2.38;;
34924;SDS011;21130;51.728;8.748;2022-07-06T04:58:37;3.08;;;1.90;;
34924;SDS011;21130;51.728;8.748;2022-07-06T05:01:02;5.32;;;2.13;;
34924;SDS011;21130;51.728;8.748;2022-07-06T05:03:27;6.60;;;2.40;;
34924;SDS011;21130;51.728;8.748;2022-07-06T05:05:52;4.40;;;2.25;;
34924;SDS011;21130;51.728;8.748;2022-07-06T05:08:18;5.97;;;2.10;;
34924;SDS011;21130;51.728;8.748;2022-07-06T05:10:43;4.25;;;2.25;;
34924;SDS011;21130;51.728;8.748;2022-07-06T05:13:08;3.65;;;2.33;;
34924;SDS011;21130;51.728;8.748;2022-07-06T05:15:34;4.03;;;2.25;;
34924;SDS011;21130;51.728;8.748;2022-07-06T05:17:59;5.47;;;2.05;;
34924;SDS011;21130;51.728;8.748;2022-07-06T05:20:24;6.95;;;2.38;;
34924;SDS011;21130;51.728;8.748;2022-07-06T05:22:52;5.45;;;2.10;;
34924;SDS011;21130;51.728;8.748;2022-07-06T05:25:18;5.15;;;3.08;;
34924;SDS011;21130;51.728;8.748;2022-07-06T05:27:43;6.22;;;2.13;;
34924;SDS011;21130;51.728;8.748;2022-07-06T05:30:09;5.13;;;1.75;;
34924;SDS011;21130;51.728;8.748;2022-07-06T05:32:35;8.00;;;2.13;;
34924;SDS011;21130;51.728;8.748;2022-07-06T05:35:00;3.42;;;1.83;;
34924;SDS011;21130;51.728;8.748;2022-07-06T05:37:25;4.05;;;1.77;;
34924;SDS011;21130;51.728;8.748;2022-07-06T05:39:54;3.08;;;1.75;;
34924;SDS011;21130;51.728;8.748;2022-07-06T05:42:19;9.60;;;2.10;;
34924;SDS011;21130;51.728;8.748;2022-07-06T05:44:45;5.28;;;2.03;;
34924;SDS011;21130;51.728;8.748;2022-07-06T05:47:10;4.78;;;2.30;;
34924;SDS011;21130;51.728;8.748;2022-07-06T05:49:54;7.47;;;1.77;;
34924;SDS011;21130;51.728;8.748;2022-07-06T05:52:38;6.40;;;2.30;;
34924;SDS011;21130;51.728;8.748;2022-07-06T05:55:04;4.85;;;1.70;;
34924;SDS011;21130;51.728;8.748;2022-07-06T05:57:30;6.88;;;2.10;;
34924;SDS011;21130;51.728;8.748;2022-07-06T05:59:55;7.32;;;2.00;;
34924;SDS011;21130;51.728;8.748;2022-07-06T06:02:20;4.10;;;2.10;;
34924;SDS011;21130;51.728;8.748;2022-07-06T06:04:46;3.83;;;1.98;;
34924;SDS011;21130;51.728;8.748;2022-07-06T06:07:11;4.38;;;1.67;;
34924;SDS011;21130;51.728;8.748;2022-07-06T06:09:36;4.38;;;2.03;;
34924;SDS011;21130;51.728;8.748;2022-07-06T06:12:02;3.88;;;1.92;;
34924;SDS011;21130;51.728;8.748;2022-07-06T06:14:27;3.15;;;2.00;;
34924;SDS011;21130;51.728;8.748;2022-07-06T06:16:53;6.82;;;2.33;;
34924;SDS011;21130;51.728;8.748;2022-07-06T06:19:18;2.83;;;2.03;;
34924;SDS011;21130;51.728;8.748;2022-07-06T06:21:43;4.60;;;2.20;;
34924;SDS011;21130;51.728;8.748;2022-07-06T06:24:09;5.38;;;2.58;;
34924;SDS011;21130;51.728;8.748;2022-07-06T06:26:34;5.35;;;1.90;;
34924;SDS011;21130;51.728;8.748;2022-07-06T06:28:59;4.88;;;1.90;;
34924;SDS011;21130;51.728;8.748;2022-07-06T06:31:24;3.42;;;2.10;;
34924;SDS011;21130;51.728;8.748;2022-07-06T06:33:50;4.38;;;1.90;;
34924;SDS011;21130;51.728;8.748;2022-07-06T06:36:15;3.00;;;1.85;;
34924;SDS011;21130;51.728;8.748;2022-07-06T06:38:41;3.78;;;2.10;;
34924;SDS011;21130;51.728;8.748;2022-07-06T06:41:06;3.83;;;2.08;;
34924;SDS011;21130;51.728;8.748;2022-07-06T06:43:31;3.30;;;2.03;;
34924;SDS011;21130;51.728;8.748;2022-07-06T06:45:57;5.50;;;2.47;;
34924;SDS011;21130;51.728;8.748;2022-07-06T06:48:22;5.20;;;2.30;;
34924;SDS011;21130;51.728;8.748;2022-07-06T06:50:48;5.35;;;2.17;;
34924;SDS011;21130;51.728;8.748;2022-07-06T06:53:13;4.50;;;2.10;;
34924;SDS011;21130;51.728;8.748;2022-07-06T06:55:38;3.70;;;2.20;;
34924;SDS011;21130;51.728;8.748;2022-07-06T06:58:04;3.95;;;2.15;;
34924;SDS011;21130;51.728;8.748;2022-07-06T07:00:29;4.88;;;1.85;;
34924;SDS011;21130;51.728;8.748;2022-07-06T07:02:55;5.93;;;1.83;;
34924;SDS011;21130;51.728;8.748;2022-07-06T07:05:20;4.28;;;1.80;;
34924;SDS011;21130;51.728;8.748;2022-07-06T07:07:45;6.53;;;2.35;;
34924;SDS011;21130;51.728;8.748;2022-07-06T07:10:11;4.65;;;2.00;;
34924;SDS011;21130;51.728;8.748;2022-07-06T07:12:42;3.08;;;1.77;;
34924;SDS011;21130;51.728;8.748;2022-07-06T07:15:11;4.68;;;1.70;;
34924;SDS011;21130;51.728;8.748;2022-07-06T07:17:37;2.45;;;1.65;;
34924;SDS011;21130;51.728;8.748;2022-07-06T07:20:03;4.53;;;2.05;;
34924;SDS011;21130;51.728;8.748;2022-07-06T07:22:29;2.88;;;2.15;;
34924;SDS011;21130;51.728;8.748;2022-07-06T07:24:55;3.60;;;2.35;;
34924;SDS011;21130;51.728;8.748;2022-07-06T07:27:20;4.15;;;2.25;;
34924;SDS011;21130;51.728;8.748;2022-07-06T07:29:45;2.95;;;1.85;;
34924;SDS011;21130;51.728;8.748;2022-07-06T07:32:11;3.83;;;1.80;;
34924;SDS011;21130;51.728;8.748;2022-07-06T07:34:36;2.53;;;1.80;;
34924;SDS011;21130;51.728;8.748;2022-07-06T07:37:02;3.22;;;2.00;;
34924;SDS011;21130;51.728;8.748;2022-07-06T07:39:27;5.72;;;2.15;;
34924;SDS011;21130;51.728;8.748;2022-07-06T07:41:53;3.40;;;1.80;;
34924;SDS011;21130;51.728;8.748;2022-07-06T07:44:19;4.80;;;2.20;;
34924;SDS011;21130;51.728;8.748;2022-07-06T07:46:44;5.32;;;2.30;;
34924;SDS011;21130;51.728;8.748;2022-07-06T07:49:10;3.10;;;2.10;;
34924;SDS011;21130;51.728;8.748;2022-07-06T07:51:35;5.80;;;2.08;;
34924;SDS011;21130;51.728;8.748;2022-07-06T07:54:01;5.53;;;2.00;;
34924;SDS011;21130;51.728;8.748;2022-07-06T07:56:26;4.05;;;1.73;;
34924;SDS011;21130;51.728;8.748;2022-07-06T07:58:51;4.20;;;2.15;;
34924;SDS011;21130;51.728;8.748;2022-07-06T08:01:17;4.40;;;2.03;;
34924;SDS011;21130;51.728;8.748;2022-07-06T08:03:42;3.55;;;1.63;;
34924;SDS011;21130;51.728;8.748;2022-07-06T08:06:07;3.13;;;1.40;;
34924;SDS011;21130;51.728;8.748;2022-07-06T08:08:33;4.60;;;1.40;;
34924;SDS011;21130;51.728;8.748;2022-07-06T08:10:58;3.28;;;1.45;;
34924;SDS011;21130;51.728;8.748;2022-07-06T08:13:23;3.22;;;1.30;;
34924;SDS011;21130;51.728;8.748;2022-07-06T08:15:49;6.43;;;1.95;;
34924;SDS011;21130;51.728;8.748;2022-07-06T08:18:14;5.28;;;1.55;;
34924;SDS011;21130;51.728;8.748;2022-07-06T08:20:40;4.50;;;1.90;;
34924;SDS011;21130;51.728;8.748;2022-07-06T08:23:07;3.17;;;1.63;;
34924;SDS011;21130;51.728;8.748;2022-07-06T08:25:32;4.70;;;1.92;;
34924;SDS011;21130;51.728;8.748;2022-07-06T08:27:58;4.78;;;1.73;;
34924;SDS011;21130;51.728;8.748;2022-07-06T08:30:23;3.22;;;1.70;;
34924;SDS011;21130;51.728;8.748;2022-07-06T08:32:49;4.53;;;1.42;;
34924;SDS011;21130;51.728;8.748;2022-07-06T08:35:14;5.63;;;1.58;;
34924;SDS011;21130;51.728;8.748;2022-07-06T08:37:40;4.05;;;1.63;;
34924;SDS011;21130;51.728;8.748;2022-07-06T08:40:06;3.83;;;1.50;;
34924;SDS011;21130;51.728;8.748;2022-07-06T08:42:34;2.78;;;1.60;;
34924;SDS011;21130;51.728;8.748;2022-07-06T08:45:05;4.38;;;1.95;;
34924;SDS011;21130;51.728;8.748;2022-07-06T08:47:31;2.00;;;1.20;;
34924;SDS011;21130;51.728;8.748;2022-07-06T08:49:57;2.35;;;1.30;;
34924;SDS011;21130;51.728;8.748;2022-07-06T08:52:22;3.63;;;1.95;;
34924;SDS011;21130;51.728;8.748;2022-07-06T08:54:49;4.90;;;2.13;;
34924;SDS011;21130;51.728;8.748;2022-07-06T08:57:18;4.43;;;1.63;;
34924;SDS011;21130;51.728;8.748;2022-07-06T08:59:44;4.22;;;1.30;;
34924;SDS011;21130;51.728;8.748;2022-07-06T09:02:10;2.60;;;1.30;;
34924;SDS011;21130;51.728;8.748;2022-07-06T09:04:37;2.28;;;1.08;;
34924;SDS011;21130;51.728;8.748;2022-07-06T09:07:03;4.80;;;1.45;;
34924;SDS011;21130;51.728;8.748;2022-07-06T09:09:29;3.55;;;1.10;;
34924;SDS011;21130;51.728;8.748;2022-07-06T09:11:58;4.45;;;1.35;;
34924;SDS011;21130;51.728;8.748;2022-07-06T09:14:23;1.83;;;0.80;;
34924;SDS011;21130;51.728;8.748;2022-07-06T09:16:58;2.70;;;1.02;;
34924;SDS011;21130;51.728;8.748;2022-07-06T09:19:28;2.15;;;1.00;;
34924;SDS011;21130;51.728;8.748;2022-07-06T09:21:55;4.05;;;1.08;;
34924;SDS011;21130;51.728;8.748;2022-07-06T09:24:20;3.17;;;0.90;;
34924;SDS011;21130;51.728;8.748;2022-07-06T09:26:47;1.88;;;0.68;;
34924;SDS011;21130;51.728;8.748;2022-07-06T09:29:13;3.28;;;0.77;;
34924;SDS011;21130;51.728;8.748;2022-07-06T09:31:54;1.00;;;0.60;;
34924;SDS011;21130;51.728;8.748;2022-07-06T09:34:21;1.05;;;0.45;;
34924;SDS011;21130;51.728;8.748;2022-07-06T09:36:49;3.42;;;0.80;;
34924;SDS011;21130;51.728;8.748;2022-07-06T09:41:44;0.50;;;0.30;;
34924;SDS011;21130;51.728;8.748;2022-07-06T09:44:18;3.35;;;0.70;;
34924;SDS011;21130;51.728;8.748;2022-07-06T09:46:46;2.55;;;0.50;;
34924;SDS011;21130;51.728;8.748;2022-07-06T09:49:12;1.75;;;0.65;;
34924;SDS011;21130;51.728;8.748;2022-07-06T09:51:40;1.88;;;0.65;;
34924;SDS011;21130;51.728;8.748;2022-07-06T09:54:06;1.52;;;0.60;;
34924;SDS011;21130;51.728;8.748;2022-07-06T09:56:36;2.25;;;0.50;;
34924;SDS011;21130;51.728;8.748;2022-07-06T09:59:09;1.13;;;0.30;;
34924;SDS011;21130;51.728;8.748;2022-07-06T10:01:36;1.05;;;0.40;;
34924;SDS011;21130;51.728;8.748;2022-07-06T10:04:02;3.03;;;0.60;;
34924;SDS011;21130;51.728;8.748;2022-07-06T10:06:28;3.60;;;0.80;;
34924;SDS011;21130;51.728;8.748;2022-07-06T10:08:54;0.70;;;0.40;;
34924;SDS011;21130;51.728;8.748;2022-07-06T10:11:24;1.92;;;0.82;;
34924;SDS011;21130;51.728;8.748;2022-07-06T10:13:50;2.15;;;0.70;;
34924;SDS011;21130;51.728;8.748;2022-07-06T10:16:24;2.10;;;0.68;;
34924;SDS011;21130;51.728;8.748;2022-07-06T10:18:51;1.35;;;0.70;;
34924;SDS011;21130;51.728;8.748;2022-07-06T10:21:19;1.38;;;0.75;;
34924;SDS011;21130;51.728;8.748;2022-07-06T10:23:45;1.42;;;0.60;;
34924;SDS011;21130;51.728;8.748;2022-07-06T10:26:10;3.55;;;0.65;;
34924;SDS011;21130;51.728;8.748;2022-07-06T10:28:36;1.88;;;0.60;;
34924;SDS011;21130;51.728;8.748;2022-07-06T10:31:02;1.77;;;0.70;;
34924;SDS011;21130;51.728;8.748;2022-07-06T10:33:28;4.35;;;0.95;;
34924;SDS011;21130;51.728;8.748;2022-07-06T10:35:55;2.40;;;0.90;;
34924;SDS011;21130;51.728;8.748;2022-07-06T10:38:21;3.63;;;0.90;;
34924;SDS011;21130;51.728;8.748;2022-07-06T10:41:06;2.90;;;1.08;;
34924;SDS011;21130;51.728;8.748;2022-07-06T10:43:44;2.40;;;0.93;;
34924;SDS011;21130;51.728;8.748;2022-07-06T10:48:39;4.40;;;1.20;;
34924;SDS011;21130;51.728;8.748;2022-07-06T10:51:27;2.92;;;1.23;;
34924;SDS011;21130;51.728;8.748;2022-07-06T10:54:01;2.80;;;1.30;;
34924;SDS011;21130;51.728;8.748;2022-07-06T10:56:49;2.60;;;1.10;;
34924;SDS011;21130;51.728;8.748;2022-07-06T10:59:22;1.98;;;1.00;;
34924;SDS011;21130;51.728;8.748;2022-07-06T11:04:36;2.40;;;0.90;;
34924;SDS011;21130;51.728;8.748;2022-07-06T11:07:07;2.38;;;1.05;;
34924;SDS011;21130;51.728;8.748;2022-07-06T11:09:35;5.18;;;1.10;;
34924;SDS011;21130;51.728;8.748;2022-07-06T11:12:11;2.63;;;1.17;;
34924;SDS011;21130;51.728;8.748;2022-07-06T11:14:40;4.53;;;1.23;;
34924;SDS011;21130;51.728;8.748;2022-07-06T11:17:06;3.22;;;1.00;;
34924;SDS011;21130;51.728;8.748;2022-07-06T11:19:35;3.28;;;1.20;;
34924;SDS011;21130;51.728;8.748;2022-07-06T11:22:05;4.07;;;0.82;;
34924;SDS011;21130;51.728;8.748;2022-07-06T11:24:36;3.90;;;0.98;;
34924;SDS011;21130;51.728;8.748;2022-07-06T11:27:03;1.67;;;0.70;;
34924;SDS011;21130;51.728;8.748;2022-07-06T11:29:32;3.40;;;1.00;;
34924;SDS011;21130;51.728;8.748;2022-07-06T11:31:59;4.63;;;1.10;;
34924;SDS011;21130;51.728;8.748;2022-07-06T11:34:50;2.55;;;1.10;;
34924;SDS011;21130;51.728;8.748;2022-07-06T11:37:17;3.85;;;1.15;;
34924;SDS011;21130;51.728;8.748;2022-07-06T11:39:46;3.13;;;1.40;;
34924;SDS011;21130;51.728;8.748;2022-07-06T11:42:16;3.33;;;1.00;;
34924;SDS011;21130;51.728;8.748;2022-07-06T11:44:43;1.73;;;0.90;;
34924;SDS011;21130;51.728;8.748;2022-07-06T11:47:09;3.20;;;1.00;;
34924;SDS011;21130;51.728;8.748;2022-07-06T11:49:36;3.65;;;1.08;;
34924;SDS011;21130;51.728;8.748;2022-07-06T11:52:10;3.60;;;1.20;;
34924;SDS011;21130;51.728;8.748;2022-07-06T11:54:36;3.83;;;1.05;;
34924;SDS011;21130;51.728;8.748;2022-07-06T11:57:02;2.72;;;1.10;;
34924;SDS011;21130;51.728;8.748;2022-07-06T11:59:32;4.28;;;1.45;;
34924;SDS011;21130;51.728;8.748;2022-07-06T12:02:05;2.13;;;0.93;;
34924;SDS011;21130;51.728;8.748;2022-07-06T12:04:38;3.67;;;1.10;;
34924;SDS011;21130;51.728;8.748;2022-07-06T12:07:08;1.52;;;0.90;;
34924;SDS011;21130;51.728;8.748;2022-07-06T12:09:37;2.05;;;1.08;;
34924;SDS011;21130;51.728;8.748;2022-07-06T12:12:04;2.45;;;0.90;;
34924;SDS011;21130;51.728;8.748;2022-07-06T12:14:31;2.42;;;0.93;;
34924;SDS011;21130;51.728;8.748;2022-07-06T12:17:02;2.47;;;1.13;;
34924;SDS011;21130;51.728;8.748;2022-07-06T12:19:28;2.13;;;0.77;;
34924;SDS011;21130;51.728;8.748;2022-07-06T12:21:56;2.50;;;0.95;;
34924;SDS011;21130;51.728;8.748;2022-07-06T12:24:25;2.00;;;0.80;;
34924;SDS011;21130;51.728;8.748;2022-07-06T12:26:53;1.90;;;0.75;;
34924;SDS011;21130;51.728;8.748;2022-07-06T12:29:19;2.05;;;0.90;;
34924;SDS011;21130;51.728;8.748;2022-07-06T12:34:25;3.03;;;1.15;;
34924;SDS011;21130;51.728;8.748;2022-07-06T12:36:54;2.17;;;0.77;;
34924;SDS011;21130;51.728;8.748;2022-07-06T12:39:21;3.22;;;0.80;;
34924;SDS011;21130;51.728;8.748;2022-07-06T12:42:02;2.25;;;0.70;;
34924;SDS011;21130;51.728;8.748;2022-07-06T12:44:30;2.25;;;0.88;;
34924;SDS011;21130;51.728;8.748;2022-07-06T12:47:08;1.15;;;0.65;;
34924;SDS011;21130;51.728;8.748;2022-07-06T12:49:35;2.17;;;0.60;;
34924;SDS011;21130;51.728;8.748;2022-07-06T12:54:44;1.63;;;0.70;;
34924;SDS011;21130;51.728;8.748;2022-07-06T12:57:12;2.25;;;0.57;;
34924;SDS011;21130;51.728;8.748;2022-07-06T12:59:41;1.77;;;0.70;;
34924;SDS011;21130;51.728;8.748;2022-07-06T13:02:25;2.25;;;0.80;;
34924;SDS011;21130;51.728;8.748;2022-07-06T13:04:55;1.05;;;0.50;;
34924;SDS011;21130;51.728;8.748;2022-07-06T13:07:22;3.15;;;0.85;;
34924;SDS011;21130;51.728;8.748;2022-07-06T13:09:47;2.42;;;0.70;;
34924;SDS011;21130;51.728;8.748;2022-07-06T13:12:13;1.13;;;0.60;;
34924;SDS011;21130;51.728;8.748;2022-07-06T13:14:38;2.88;;;0.80;;
34924;SDS011;21130;51.728;8.748;2022-07-06T13:17:03;3.90;;;0.50;;
34924;SDS011;21130;51.728;8.748;2022-07-06T13:19:29;2.05;;;0.55;;
34924;SDS011;21130;51.728;8.748;2022-07-06T13:21:54;2.00;;;0.60;;
34924;SDS011;21130;51.728;8.748;2022-07-06T13:24:45;3.42;;;0.77;;
34924;SDS011;21130;51.728;8.748;2022-07-06T13:27:14;2.33;;;0.50;;
34924;SDS011;21130;51.728;8.748;2022-07-06T13:29:39;2.50;;;0.77;;
34924;SDS011;21130;51.728;8.748;2022-07-06T13:32:05;2.08;;;0.40;;
34924;SDS011;21130;51.728;8.748;2022-07-06T13:34:31;3.50;;;0.60;;
34924;SDS011;21130;51.728;8.748;2022-07-06T13:36:57;1.73;;;0.60;;
34924;SDS011;21130;51.728;8.748;2022-07-06T13:39:22;2.70;;;0.50;;
34924;SDS011;21130;51.728;8.748;2022-07-06T13:41:48;2.17;;;0.77;;
34924;SDS011;21130;51.728;8.748;2022-07-06T13:44:14;2.63;;;0.60;;
34924;SDS011;21130;51.728;8.748;2022-07-06T13:46:40;1.90;;;0.77;;
34924;SDS011;21130;51.728;8.748;2022-07-06T13:49:05;4.68;;;0.70;;
34924;SDS011;21130;51.728;8.748;2022-07-06T13:51:31;2.65;;;0.50;;
34924;SDS011;21130;51.728;8.748;2022-07-06T13:54:01;1.75;;;0.60;;
34924;SDS011;21130;51.728;8.748;2022-07-06T13:56:27;1.25;;;0.43;;
34924;SDS011;21130;51.728;8.748;2022-07-06T13:58:52;1.30;;;0.60;;
34924;SDS011;21130;51.728;8.748;2022-07-06T14:01:19;2.95;;;0.52;;
34924;SDS011;21130;51.728;8.748;2022-07-06T14:03:45;1.77;;;0.60;;
34924;SDS011;21130;51.728;8.748;2022-07-06T14:06:10;1.95;;;0.75;;
34924;SDS011;21130;51.728;8.748;2022-07-06T14:08:36;3.47;;;0.60;;
34924;SDS011;21130;51.728;8.748;2022-07-06T14:11:03;2.50;;;0.63;;
34924;SDS011;21130;51.728;8.748;2022-07-06T14:13:30;1.02;;;0.52;;
34924;SDS011;21130;51.728;8.748;2022-07-06T14:15:55;3.00;;;0.70;;
34924;SDS011;21130;51.728;8.748;2022-07-06T14:18:21;1.67;;;0.50;;
34924;SDS011;21130;51.728;8.748;2022-07-06T14:20:47;1.98;;;0.50;;
34924;SDS011;21130;51.728;8.748;2022-07-06T14:23:13;0.82;;;0.30;;
34924;SDS011;21130;51.728;8.748;2022-07-06T14:25:40;1.15;;;0.47;;
34924;SDS011;21130;51.728;8.748;2022-07-06T14:28:06;1.27;;;0.50;;
34924;SDS011;21130;51.728;8.748;2022-07-06T14:30:33;2.47;;;0.70;;
34924;SDS011;21130;51.728;8.748;2022-07-06T14:33:02;1.65;;;0.40;;
34924;SDS011;21130;51.728;8.748;2022-07-06T14:35:34;0.77;;;0.43;;
34924;SDS011;21130;51.728;8.748;2022-07-06T14:38:01;2.60;;;0.40;;
34924;SDS011;21130;51.728;8.748;2022-07-06T14:40:27;2.72;;;0.57;;
34924;SDS011;21130;51.728;8.748;2022-07-06T14:42:52;4.28;;;0.63;;
34924;SDS011;21130;51.728;8.748;2022-07-06T14:45:17;2.55;;;0.57;;
34924;SDS011;21130;51.728;8.748;2022-07-06T14:47:42;2.57;;;0.70;;
34924;SDS011;21130;51.728;8.748;2022-07-06T14:50:08;1.60;;;0.50;;
34924;SDS011;21130;51.728;8.748;2022-07-06T14:52:33;1.60;;;0.70;;
34924;SDS011;21130;51.728;8.748;2022-07-06T14:54:59;2.10;;;0.52;;
34924;SDS011;21130;51.728;8.748;2022-07-06T14:57:25;1.95;;;0.40;;
34924;SDS011;21130;51.728;8.748;2022-07-06T14:59:50;3.40;;;0.75;;
34924;SDS011;21130;51.728;8.748;2022-07-06T15:02:19;3.28;;;0.80;;